KBA weather

Kabala Airport
Kabala, Northern Province, Sierra Leone

Public forecast

Using degrees Celsius for public forecast. Weather courtesy of forecast.io.

METAR (pilot weather report)

Report is more than 6 hours old.

Closest report is Tata Airport, 111.1 nm (205.7 km) NNW. Retrieved 2017/02/20 12:00 UTC (2 years ago):

GULB 201200Z 09008KT CAVOK 31/05 Q1008 NOSIG

TAF (pilot weather forecast)

Forecast is more than 12 hours old.

Closest forecast is Lungi International Airport, 117.0 nm (216.6 km) WSW. Retrieved 2019/03/22 18:00 UTC (3 days ago):

TAF GFLL 221700Z 2218/2324 24007KT 8000 HZ BKN013 TEMPO 2324/2305 22003KT SCT014 TEMPO 2306/2310 VRB02KT 5000 BR BKN011 TEMPO 2312/2316 27006KT 8000 HZ SCT012 BECMG 2314/2316 8000 HZ NSC